Fields, Louisiana
Current Conditions -  °F | °C
As of 2:15 PM on Saturday 20 Dec 2014 (Local Time) from KDRI Reporting Station
Clear Clear  
Wind Chill: 57°   Ceiling: Unl
Heat Index: 57°   Visibility: 10mi
Dew Point: 44°   Wind: 7mph
Humidity: 62%   Direction: 20°NNE
Pressure: 30.16"   Gusts: NA
Location:  30.7059°N, 93.5527°W
Report Text: KDRI 202015Z AUTO 02006KT 10SM CLR 14/07 A3016 RMK AO2 T01390068
Loading
Personal Weather Stations






























Interactive Weather Map New forecast layout! Learn more

10-Day Weather Forecast

Advertisements
Track Severe Weather on mobile